createdAt,value
2018-05-29T00:01:43.748Z,20.57
2018-05-29T00:04:12.155Z,20.55
2018-05-29T00:06:40.546Z,20.53
2018-05-29T00:09:08.990Z,20.49
2018-05-29T00:11:37.329Z,20.44
2018-05-29T00:14:05.702Z,20.40
2018-05-29T00:16:34.030Z,20.38
2018-05-29T00:19:02.359Z,20.35
2018-05-29T00:21:30.701Z,20.30
2018-05-29T00:23:59.037Z,20.26
2018-05-29T00:26:27.386Z,20.22
2018-05-29T00:28:55.733Z,20.19
2018-05-29T00:31:24.161Z,20.19
2018-05-29T00:33:52.489Z,20.20
2018-05-29T00:36:20.828Z,20.16
2018-05-29T00:38:49.180Z,20.10
2018-05-29T00:41:17.506Z,20.04
2018-05-29T00:43:45.911Z,20.02
2018-05-29T00:46:14.231Z,19.95
2018-05-29T00:48:42.589Z,19.93
2018-05-29T00:51:10.908Z,19.87
2018-05-29T00:53:39.283Z,19.88
2018-05-29T00:56:07.687Z,19.82
2018-05-29T00:58:36.057Z,19.78
2018-05-29T01:01:04.464Z,19.77
2018-05-29T01:03:32.792Z,19.73
2018-05-29T01:06:01.129Z,19.68
2018-05-29T01:08:29.552Z,19.67
2018-05-29T01:10:57.910Z,19.66
2018-05-29T01:13:26.245Z,19.65
2018-05-29T01:15:54.581Z,19.66
2018-05-29T01:18:22.998Z,19.60
2018-05-29T01:20:51.395Z,19.59
2018-05-29T01:23:19.732Z,19.62
2018-05-29T01:25:48.066Z,19.63
2018-05-29T01:28:16.463Z,19.55
2018-05-29T01:33:19.513Z,19.47
2018-05-29T01:35:47.889Z,19.44
2018-05-29T01:38:16.293Z,19.41
2018-05-29T01:40:44.659Z,19.36
2018-05-29T01:43:12.969Z,19.32
2018-05-29T01:45:41.311Z,19.22
2018-05-29T01:48:09.647Z,19.18
2018-05-29T01:50:37.997Z,19.21
2018-05-29T01:53:06.415Z,19.20
2018-05-29T01:55:34.823Z,19.20
2018-05-29T01:58:03.135Z,19.10
2018-05-29T02:00:31.518Z,19.01
2018-05-29T02:02:59.861Z,19.02
2018-05-29T02:05:28.177Z,18.97
2018-05-29T02:07:56.522Z,18.94
2018-05-29T02:10:24.854Z,18.88
2018-05-29T02:12:53.185Z,18.85
2018-05-29T02:15:21.529Z,18.82
2018-05-29T02:17:49.867Z,18.84
2018-05-29T02:20:18.209Z,18.82
2018-05-29T02:22:46.622Z,18.78
2018-05-29T02:25:14.941Z,18.77
2018-05-29T02:27:43.327Z,18.78
2018-05-29T02:30:11.658Z,18.81
2018-05-29T02:32:39.972Z,18.84
2018-05-29T02:35:08.362Z,18.87
2018-05-29T02:37:36.787Z,18.88
2018-05-29T02:40:05.140Z,19.00
2018-05-29T02:42:33.531Z,19.09
2018-05-29T02:45:01.842Z,19.11
2018-05-29T02:47:30.244Z,19.22
2018-05-29T02:49:58.626Z,19.31
2018-05-29T02:52:26.951Z,19.33
2018-05-29T02:54:55.298Z,19.30
2018-05-29T02:57:24.228Z,19.35
2018-05-29T02:59:52.611Z,19.39
2018-05-29T03:02:20.980Z,19.37
2018-05-29T03:04:49.388Z,19.36
2018-05-29T03:07:17.710Z,19.33
2018-05-29T03:09:46.021Z,19.33
2018-05-29T03:12:14.360Z,19.30
2018-05-29T03:14:42.690Z,19.25
2018-05-29T03:17:11.052Z,19.23
2018-05-29T03:19:39.427Z,19.29
2018-05-29T03:22:07.760Z,19.25
2018-05-29T03:24:36.095Z,19.27
2018-05-29T03:27:04.432Z,19.35
2018-05-29T03:29:32.761Z,19.44
2018-05-29T03:32:01.077Z,19.48
2018-05-29T03:34:29.515Z,19.47
2018-05-29T03:36:57.950Z,19.43
2018-05-29T03:39:26.389Z,19.41
2018-05-29T03:41:54.743Z,19.39
2018-05-29T03:44:23.174Z,19.46
2018-05-29T03:46:51.511Z,19.50
2018-05-29T03:49:19.828Z,19.47
2018-05-29T03:51:48.250Z,19.49
2018-05-29T03:54:16.624Z,19.50
2018-05-29T03:56:45.025Z,19.52
2018-05-29T03:59:13.364Z,19.61
2018-05-29T04:01:42.790Z,19.67
2018-05-29T04:04:11.133Z,19.68
2018-05-29T04:06:39.475Z,19.69
2018-05-29T04:09:07.801Z,19.72
2018-05-29T04:11:36.244Z,19.72
2018-05-29T04:14:04.598Z,19.71
2018-05-29T04:16:32.937Z,19.76
2018-05-29T04:19:01.288Z,19.76
2018-05-29T04:21:29.657Z,19.77
2018-05-29T04:23:58.107Z,19.81
2018-05-29T04:26:26.418Z,19.83
2018-05-29T04:28:54.845Z,19.91
2018-05-29T04:31:23.167Z,20.00
2018-05-29T04:33:51.484Z,20.11
2018-05-29T04:36:19.948Z,20.18
2018-05-29T04:38:48.302Z,20.26
2018-05-29T04:41:16.635Z,20.29
2018-05-29T04:43:44.954Z,20.39
2018-05-29T04:46:13.282Z,20.48
2018-05-29T04:48:41.673Z,20.69
2018-05-29T04:51:10.782Z,20.76
2018-05-29T04:53:39.184Z,20.83
2018-05-29T04:56:07.524Z,20.93
2018-05-29T04:58:35.857Z,20.98
2018-05-29T05:01:04.179Z,21.03
2018-05-29T05:03:32.513Z,21.08
2018-05-29T05:06:00.828Z,21.18
2018-05-29T05:08:29.253Z,21.25
2018-05-29T05:10:57.579Z,21.29
2018-05-29T05:13:26.538Z,21.41
2018-05-29T05:15:54.865Z,21.52
2018-05-29T05:18:23.201Z,21.60
2018-05-29T05:20:51.532Z,21.68
2018-05-29T05:23:19.834Z,21.78
2018-05-29T05:25:48.801Z,21.90
2018-05-29T05:28:17.120Z,22.00
2018-05-29T05:30:45.461Z,22.12
2018-05-29T05:33:13.781Z,22.17
2018-05-29T05:35:42.111Z,22.30
2018-05-29T05:38:10.433Z,22.42
2018-05-29T05:40:39.194Z,22.55
2018-05-29T05:43:07.498Z,22.70
2018-05-29T05:45:35.833Z,22.85
2018-05-29T05:48:04.179Z,23.00
2018-05-29T05:50:32.510Z,23.12
2018-05-29T05:53:00.887Z,23.19
2018-05-29T05:55:29.222Z,23.43
2018-05-29T05:57:57.634Z,23.76
2018-05-29T06:00:25.978Z,24.18
2018-05-29T06:02:54.380Z,24.86
2018-05-29T06:05:22.769Z,26.07
2018-05-29T06:07:51.107Z,27.19
2018-05-29T06:10:19.437Z,28.16
2018-05-29T06:12:47.751Z,28.35
2018-05-29T06:15:22.284Z,29.31
2018-05-29T06:17:50.627Z,29.87
2018-05-29T06:20:18.954Z,29.44
2018-05-29T06:22:47.287Z,29.53
2018-05-29T06:25:15.615Z,30.57
2018-05-29T06:27:44.047Z,30.34
2018-05-29T06:30:12.435Z,30.42
2018-05-29T06:32:40.828Z,30.81
2018-05-29T06:35:09.227Z,30.35
2018-05-29T06:37:37.891Z,30.21
2018-05-29T06:40:06.206Z,29.15
2018-05-29T06:42:34.534Z,29.30
2018-05-29T06:45:03.232Z,30.09
2018-05-29T06:47:31.480Z,30.04
2018-05-29T06:49:59.870Z,30.58
2018-05-29T06:52:28.269Z,31.23
2018-05-29T06:54:56.603Z,31.30
2018-05-29T06:57:25.120Z,31.13
2018-05-29T06:59:53.442Z,31.03
2018-05-29T07:02:21.759Z,30.67
2018-05-29T07:04:50.135Z,31.04
2018-05-29T07:07:18.448Z,30.55
2018-05-29T07:09:46.818Z,30.99
2018-05-29T07:12:15.125Z,31.16
2018-05-29T07:14:43.493Z,31.73
2018-05-29T07:17:11.821Z,31.75
2018-05-29T07:19:40.168Z,31.46
2018-05-29T07:22:08.483Z,31.34
2018-05-29T07:24:36.845Z,31.56
2018-05-29T07:27:05.267Z,31.61
2018-05-29T07:29:33.642Z,31.84
2018-05-29T07:32:01.950Z,31.24
2018-05-29T07:34:30.489Z,31.46
2018-05-29T07:36:58.793Z,30.60
2018-05-29T07:39:27.236Z,30.30
2018-05-29T07:41:56.620Z,30.41
2018-05-29T07:44:24.942Z,31.14
2018-05-29T07:46:53.316Z,31.50
2018-05-29T07:49:21.706Z,31.58
2018-05-29T07:51:50.022Z,30.96
2018-05-29T07:54:18.390Z,31.15
2018-05-29T07:56:46.718Z,31.04
2018-05-29T07:59:15.034Z,31.52
2018-05-29T08:01:43.365Z,32.44
2018-05-29T08:04:11.674Z,32.69
2018-05-29T08:06:40.088Z,32.91
2018-05-29T08:09:08.402Z,32.67
2018-05-29T08:11:36.753Z,32.03
2018-05-29T08:14:05.095Z,31.90
2018-05-29T08:16:33.409Z,31.32
2018-05-29T08:19:01.731Z,31.28
2018-05-29T08:21:30.103Z,31.81
2018-05-29T08:23:58.435Z,32.06
2018-05-29T08:26:26.768Z,31.87
2018-05-29T08:28:55.140Z,32.16
2018-05-29T08:31:23.562Z,32.19
2018-05-29T08:33:51.950Z,32.64
2018-05-29T08:36:20.281Z,32.43
2018-05-29T08:38:48.642Z,32.52
2018-05-29T08:41:16.959Z,32.78
2018-05-29T08:43:45.301Z,33.47
2018-05-29T08:46:13.767Z,33.30
2018-05-29T08:48:42.150Z,33.28
2018-05-29T08:51:10.452Z,32.40
2018-05-29T08:53:38.805Z,32.35
2018-05-29T08:56:07.197Z,32.21
2018-05-29T08:58:35.531Z,32.47
2018-05-29T09:01:03.893Z,31.91
2018-05-29T09:03:32.234Z,31.70
2018-05-29T09:06:00.564Z,31.49
2018-05-29T09:08:28.912Z,31.94
2018-05-29T09:10:57.347Z,31.93
2018-05-29T09:13:25.718Z,32.19
2018-05-29T09:15:54.068Z,32.46
2018-05-29T09:18:22.524Z,32.17
2018-05-29T09:20:50.925Z,32.43
2018-05-29T09:23:19.303Z,32.73
2018-05-29T09:25:47.699Z,32.56
2018-05-29T09:28:16.088Z,31.85
2018-05-29T09:30:44.490Z,31.88
2018-05-29T09:33:13.115Z,31.96
2018-05-29T09:35:41.463Z,32.27
2018-05-29T09:38:09.785Z,32.22
2018-05-29T09:40:38.144Z,32.57
2018-05-29T09:43:06.861Z,32.95
2018-05-29T09:45:35.162Z,33.08
2018-05-29T09:48:03.478Z,33.27
2018-05-29T09:50:31.812Z,33.49
2018-05-29T09:53:00.147Z,32.80
2018-05-29T09:55:28.601Z,32.82
2018-05-29T09:57:56.915Z,33.34
2018-05-29T10:00:31.028Z,32.99
2018-05-29T10:02:59.448Z,33.23
2018-05-29T10:05:27.804Z,33.93
2018-05-29T10:07:56.146Z,33.17
2018-05-29T10:10:24.446Z,33.19
2018-05-29T10:12:55.207Z,34.51
2018-05-29T10:15:24.565Z,35.07
2018-05-29T10:17:52.900Z,35.12
2018-05-29T10:20:21.258Z,35.76
2018-05-29T10:22:49.555Z,35.85
2018-05-29T10:25:17.858Z,35.77
2018-05-29T10:27:46.223Z,35.44
2018-05-29T10:30:14.627Z,33.95
2018-05-29T10:32:42.963Z,33.45
2018-05-29T10:35:11.263Z,33.98
2018-05-29T10:37:39.681Z,33.73
2018-05-29T10:40:07.981Z,33.67
2018-05-29T10:42:36.299Z,34.01
2018-05-29T10:45:04.625Z,35.07
2018-05-29T10:47:33.046Z,35.35
2018-05-29T10:50:01.344Z,34.71
2018-05-29T10:52:29.675Z,33.41
2018-05-29T10:54:58.032Z,33.94
2018-05-29T10:57:26.360Z,34.11
2018-05-29T10:59:54.703Z,35.82
2018-05-29T11:02:23.056Z,36.28
2018-05-29T11:04:51.411Z,35.39
2018-05-29T11:07:19.731Z,34.29
2018-05-29T11:09:48.169Z,33.18
2018-05-29T11:12:16.557Z,33.85
2018-05-29T11:14:44.967Z,33.88
2018-05-29T11:17:13.440Z,34.53
2018-05-29T11:19:41.857Z,34.08
2018-05-29T11:22:10.246Z,34.65
2018-05-29T11:24:38.615Z,34.55
2018-05-29T11:27:06.928Z,34.58
2018-05-29T11:29:35.258Z,35.32
2018-05-29T11:32:03.620Z,35.34
2018-05-29T11:34:32.004Z,35.57
2018-05-29T11:37:00.331Z,35.80
2018-05-29T11:39:28.630Z,35.55
2018-05-29T11:41:56.940Z,36.52
2018-05-29T11:44:25.263Z,37.92
2018-05-29T11:46:53.589Z,37.09
2018-05-29T11:49:21.915Z,36.16
2018-05-29T11:51:50.223Z,35.64
2018-05-29T11:54:18.545Z,35.78
2018-05-29T11:56:46.873Z,35.26
2018-05-29T11:59:15.208Z,34.51
2018-05-29T12:01:43.682Z,35.63
2018-05-29T12:04:11.970Z,36.39
2018-05-29T12:06:40.516Z,36.59
2018-05-29T12:09:08.875Z,36.64
2018-05-29T12:11:37.288Z,36.28
2018-05-29T12:14:05.620Z,36.73
2018-05-29T12:16:33.939Z,36.58
2018-05-29T12:19:02.340Z,35.50
2018-05-29T12:21:30.655Z,35.05
2018-05-29T12:23:58.973Z,35.09
2018-05-29T12:26:27.279Z,35.77
2018-05-29T12:28:55.580Z,35.86
2018-05-29T12:31:23.911Z,36.36
2018-05-29T12:33:52.228Z,36.34
2018-05-29T12:36:20.535Z,36.49
2018-05-29T12:38:48.859Z,36.25
2018-05-29T12:41:17.217Z,36.10
2018-05-29T12:43:45.562Z,35.79
2018-05-29T12:46:14.020Z,35.46
2018-05-29T12:48:42.335Z,34.89
2018-05-29T12:51:10.688Z,34.92
2018-05-29T12:53:39.127Z,35.68
2018-05-29T12:56:07.514Z,36.42
2018-05-29T12:58:35.906Z,36.82
2018-05-29T13:01:04.230Z,35.21
2018-05-29T13:03:32.535Z,34.60
2018-05-29T13:06:00.852Z,35.08
2018-05-29T13:08:29.197Z,35.74
2018-05-29T13:10:57.511Z,36.38
2018-05-29T13:13:25.853Z,37.12
2018-05-29T13:15:54.238Z,37.99
2018-05-29T13:18:22.556Z,37.29
2018-05-29T13:20:50.918Z,36.39
2018-05-29T13:23:19.312Z,36.23
2018-05-29T13:25:47.631Z,35.35
2018-05-29T13:28:15.961Z,35.71
2018-05-29T13:30:44.403Z,36.58
2018-05-29T13:33:12.780Z,36.06
2018-05-29T13:35:41.106Z,36.65
2018-05-29T13:38:09.428Z,37.22
2018-05-29T13:40:37.898Z,36.57
2018-05-29T13:43:06.211Z,36.54
2018-05-29T13:45:34.690Z,36.62
2018-05-29T13:48:02.995Z,36.17
2018-05-29T13:50:31.311Z,35.03
2018-05-29T13:52:59.720Z,34.58
2018-05-29T13:55:28.109Z,35.54
2018-05-29T13:57:56.510Z,35.46
2018-05-29T14:00:24.815Z,35.16
2018-05-29T14:02:53.144Z,35.19
2018-05-29T14:05:21.461Z,35.83
2018-05-29T14:07:50.331Z,35.95
2018-05-29T14:10:18.645Z,35.87
2018-05-29T14:12:46.960Z,35.21
2018-05-29T14:15:15.280Z,35.40
2018-05-29T14:17:43.599Z,35.09
2018-05-29T14:20:11.939Z,35.25
2018-05-29T14:22:40.258Z,36.20
2018-05-29T14:25:08.567Z,36.20
2018-05-29T14:27:36.883Z,35.62
2018-05-29T14:30:05.231Z,35.37
2018-05-29T14:32:33.597Z,35.00
2018-05-29T14:35:01.965Z,33.99
2018-05-29T14:37:30.361Z,33.47
2018-05-29T14:39:58.717Z,33.13
2018-05-29T14:42:27.059Z,33.07
2018-05-29T14:44:55.362Z,33.19
2018-05-29T14:47:24.617Z,32.91
2018-05-29T14:49:52.972Z,32.61
2018-05-29T14:52:21.376Z,32.47
2018-05-29T14:54:49.744Z,32.22
2018-05-29T14:57:18.078Z,32.24
2018-05-29T14:59:46.425Z,32.18
2018-05-29T15:02:14.735Z,32.14
2018-05-29T15:04:43.088Z,32.09
2018-05-29T15:07:11.398Z,31.98
2018-05-29T15:09:39.769Z,31.69
2018-05-29T15:12:08.081Z,31.55
2018-05-29T15:14:36.475Z,31.53
2018-05-29T15:17:04.791Z,31.35
2018-05-29T15:19:33.109Z,31.79
2018-05-29T15:22:01.416Z,32.06
2018-05-29T15:24:29.742Z,32.60
2018-05-29T15:26:58.141Z,32.79
2018-05-29T15:29:26.465Z,33.05
2018-05-29T15:31:54.912Z,33.09
2018-05-29T15:34:23.304Z,33.31
2018-05-29T15:36:51.652Z,33.49
2018-05-29T15:39:19.971Z,33.54
2018-05-29T15:41:48.291Z,33.43
2018-05-29T15:44:21.921Z,33.44
2018-05-29T15:46:50.220Z,33.88
2018-05-29T15:49:18.529Z,34.08
2018-05-29T15:51:46.859Z,33.87
2018-05-29T15:54:15.188Z,33.18
2018-05-29T15:56:43.512Z,33.05
2018-05-29T15:59:11.941Z,33.27
2018-05-29T16:01:40.283Z,32.65
2018-05-29T16:04:08.588Z,32.76
2018-05-29T16:06:36.935Z,32.86
2018-05-29T16:09:06.207Z,32.92
2018-05-29T16:11:34.528Z,32.99
2018-05-29T16:14:02.889Z,32.93
2018-05-29T16:16:31.380Z,33.17
2018-05-29T16:18:59.700Z,33.21
2018-05-29T16:21:28.072Z,32.61
2018-05-29T16:23:56.477Z,32.10
2018-05-29T16:26:24.827Z,32.05
2018-05-29T16:28:53.138Z,32.10
2018-05-29T16:31:21.509Z,32.09
2018-05-29T16:33:49.818Z,31.95
2018-05-29T16:36:18.243Z,31.85
2018-05-29T16:38:46.608Z,31.58
2018-05-29T16:41:15.020Z,31.32
2018-05-29T16:43:43.374Z,31.38
2018-05-29T16:46:11.681Z,31.45
2018-05-29T16:48:40.107Z,31.18
2018-05-29T16:51:08.437Z,30.92
2018-05-29T16:53:36.753Z,30.81
2018-05-29T16:56:05.103Z,30.62
2018-05-29T16:58:33.486Z,30.55
2018-05-29T17:01:01.824Z,30.33
2018-05-29T17:03:30.167Z,30.14
2018-05-29T17:05:58.491Z,29.93
2018-05-29T17:08:26.841Z,30.03
2018-05-29T17:10:55.224Z,29.91
2018-05-29T17:13:23.527Z,29.84
2018-05-29T17:15:51.921Z,29.70
2018-05-29T17:18:20.260Z,29.55
2018-05-29T17:20:48.626Z,29.38
2018-05-29T17:23:16.934Z,29.30
2018-05-29T17:25:45.288Z,29.29
2018-05-29T17:28:13.656Z,29.18
2018-05-29T17:30:41.981Z,29.10
2018-05-29T17:33:10.302Z,29.00
2018-05-29T17:35:38.668Z,28.89
2018-05-29T17:38:07.017Z,28.90
2018-05-29T17:40:35.362Z,28.86
2018-05-29T17:43:03.690Z,28.82
2018-05-29T17:45:32.016Z,28.65
2018-05-29T17:48:00.352Z,28.62
2018-05-29T17:50:28.665Z,28.54
2018-05-29T17:52:57.014Z,28.55
2018-05-29T17:55:25.321Z,28.45
2018-05-29T17:57:53.672Z,28.31
2018-05-29T18:00:21.972Z,28.31
2018-05-29T18:02:50.311Z,28.16
2018-05-29T18:05:18.632Z,27.97
2018-05-29T18:07:47.081Z,27.96
2018-05-29T18:10:15.422Z,27.93
2018-05-29T18:12:43.743Z,27.89
2018-05-29T18:15:12.236Z,27.82
2018-05-29T18:17:40.627Z,27.75
2018-05-29T18:20:08.996Z,27.71
2018-05-29T18:22:37.365Z,27.58
2018-05-29T18:25:05.678Z,27.54
2018-05-29T18:27:34.090Z,27.49
2018-05-29T18:30:02.446Z,27.39
2018-05-29T18:32:30.804Z,27.31
2018-05-29T18:34:59.181Z,27.29
2018-05-29T18:37:27.513Z,27.17
2018-05-29T18:39:56.136Z,27.17
2018-05-29T18:42:24.568Z,27.13
2018-05-29T18:44:52.922Z,27.08
2018-05-29T18:47:21.248Z,27.10
2018-05-29T18:49:49.596Z,27.05
2018-05-29T18:52:17.907Z,26.99
2018-05-29T18:54:46.235Z,26.98
2018-05-29T18:57:14.551Z,26.93
2018-05-29T18:59:42.883Z,26.89
2018-05-29T19:02:11.252Z,26.85
2018-05-29T19:04:39.641Z,26.84
2018-05-29T19:07:07.948Z,26.81
2018-05-29T19:09:36.285Z,26.75
2018-05-29T19:12:04.685Z,26.73
2018-05-29T19:14:33.003Z,26.68
2018-05-29T19:17:01.353Z,26.60
2018-05-29T19:19:29.661Z,26.61
2018-05-29T19:21:57.987Z,26.51
2018-05-29T19:24:26.314Z,26.43
2018-05-29T19:26:54.654Z,26.36
2018-05-29T19:29:23.009Z,26.25
2018-05-29T19:31:52.231Z,26.15
2018-05-29T19:34:20.695Z,26.08
2018-05-29T19:36:49.024Z,26.06
2018-05-29T19:39:17.341Z,25.98
2018-05-29T19:41:45.737Z,25.93
2018-05-29T19:44:14.060Z,25.92
2018-05-29T19:46:42.396Z,25.98
2018-05-29T19:49:10.694Z,26.08
2018-05-29T19:51:39.010Z,26.21
2018-05-29T19:54:07.353Z,26.30
2018-05-29T19:56:35.660Z,26.36
2018-05-29T19:59:03.980Z,26.38
2018-05-29T20:01:32.323Z,26.37
2018-05-29T20:04:00.624Z,26.37
2018-05-29T20:06:28.964Z,26.34
2018-05-29T20:08:57.287Z,26.32
2018-05-29T20:11:25.660Z,26.32
2018-05-29T20:13:53.981Z,26.35
2018-05-29T20:16:22.328Z,26.35
2018-05-29T20:18:50.666Z,26.38
2018-05-29T20:21:19.090Z,26.37
2018-05-29T20:23:47.486Z,26.45
2018-05-29T20:26:15.809Z,26.52
2018-05-29T20:28:44.241Z,26.49
2018-05-29T20:31:12.809Z,26.49
2018-05-29T20:33:41.119Z,26.51
2018-05-29T20:36:09.424Z,26.46
2018-05-29T20:38:37.750Z,26.43
2018-05-29T20:41:06.134Z,26.40
2018-05-29T20:43:34.522Z,26.29
2018-05-29T20:46:02.882Z,26.21
2018-05-29T20:48:31.238Z,26.18
2018-05-29T20:50:59.559Z,26.12
2018-05-29T20:53:27.899Z,26.03
2018-05-29T20:55:56.211Z,25.95
2018-05-29T20:58:24.532Z,25.89
2018-05-29T21:00:52.976Z,25.78
2018-05-29T21:03:21.321Z,25.65
2018-05-29T21:05:49.637Z,25.46
2018-05-29T21:08:18.039Z,25.38
2018-05-29T21:10:46.430Z,25.33
2018-05-29T21:13:14.924Z,25.23
2018-05-29T21:15:43.314Z,25.15
2018-05-29T21:18:11.727Z,25.07
2018-05-29T21:20:40.099Z,25.05
2018-05-29T21:23:08.528Z,24.96
2018-05-29T21:25:36.861Z,24.87
2018-05-29T21:28:06.008Z,24.76
2018-05-29T21:30:34.389Z,24.71
2018-05-29T21:33:02.785Z,24.70
2018-05-29T21:35:31.108Z,24.61
2018-05-29T21:37:59.454Z,24.53
2018-05-29T21:40:27.772Z,24.48
2018-05-29T21:42:56.096Z,24.44
2018-05-29T21:45:24.730Z,24.41
2018-05-29T21:47:53.058Z,24.36
2018-05-29T21:50:21.594Z,24.32
2018-05-29T21:52:50.040Z,24.22
2018-05-29T21:55:18.425Z,24.20
2018-05-29T21:57:47.738Z,24.08
2018-05-29T22:00:16.058Z,24.02
2018-05-29T22:02:44.394Z,23.92
2018-05-29T22:05:12.706Z,23.90
2018-05-29T22:07:41.101Z,23.84
2018-05-29T22:10:09.412Z,23.85
2018-05-29T22:12:37.787Z,23.80
2018-05-29T22:15:06.253Z,23.77
2018-05-29T22:17:34.769Z,23.69
2018-05-29T22:20:03.119Z,23.60
2018-05-29T22:22:31.640Z,23.52
2018-05-29T22:25:00.048Z,23.45
2018-05-29T22:27:28.654Z,23.38
2018-05-29T22:29:56.966Z,23.31
2018-05-29T22:32:25.382Z,23.25
2018-05-29T22:34:53.733Z,23.13
2018-05-29T22:37:22.143Z,23.08
2018-05-29T22:39:51.406Z,23.02
2018-05-29T22:42:19.706Z,23.00
2018-05-29T22:44:48.092Z,22.96
2018-05-29T22:47:16.459Z,22.88
2018-05-29T22:49:44.826Z,22.83
2018-05-29T22:52:13.161Z,22.81
2018-05-29T22:54:41.585Z,22.81
2018-05-29T22:57:09.890Z,22.76
2018-05-29T22:59:38.262Z,22.71
2018-05-29T23:02:06.680Z,22.68
2018-05-29T23:04:35.045Z,22.67
2018-05-29T23:07:03.354Z,22.59
2018-05-29T23:09:31.678Z,22.58
2018-05-29T23:12:00.006Z,22.54
2018-05-29T23:14:28.315Z,22.49
2018-05-29T23:16:56.714Z,22.43
2018-05-29T23:19:25.064Z,22.43
2018-05-29T23:21:53.977Z,22.41
2018-05-29T23:24:22.292Z,22.38
2018-05-29T23:26:50.708Z,22.38
2018-05-29T23:29:19.016Z,22.34
2018-05-29T23:31:47.344Z,22.31
2018-05-29T23:34:15.731Z,22.25
2018-05-29T23:36:44.091Z,22.18
2018-05-29T23:39:12.429Z,22.13
2018-05-29T23:41:40.752Z,22.07
2018-05-29T23:44:09.188Z,22.04
2018-05-29T23:46:37.518Z,22.02
2018-05-29T23:49:05.855Z,21.91
2018-05-29T23:51:34.161Z,21.81
2018-05-29T23:59:46.070Z,21.53
